Time;durP1;ratioP1;P1;durP2;ratioP2;P2;SDS_P1;SDS_P2;PMS_P1;PMS_P2;Temp;Humidity;BMP_temperature;BMP_pressure;BME280_temperature;BME280_humidity;BME280_pressure;Samples;Min_cycle;Max_cycle;Signal;HPM_P1;HPM_P2
2022/10/21 00:00:31;;;;;;;5.20;4.20;;;16.00;67.70;;;;;;5074560;28;20044;-73
2022/10/21 00:02:57;;;;;;;4.38;3.80;;;16.00;67.80;;;;;;5073678;28;20059;-73
2022/10/21 00:05:25;;;;;;;4.43;3.80;;;16.00;67.80;;;;;;5076073;28;20047;-73
2022/10/21 00:07:53;;;;;;;5.20;3.70;;;16.00;67.80;;;;;;5094746;28;20048;-73
2022/10/21 00:10:20;;;;;;;4.75;3.70;;;16.00;68.30;;;;;;5093561;28;20404;-73
2022/10/21 00:12:47;;;;;;;4.22;3.63;;;16.00;67.80;;;;;;5094027;28;20066;-73
2022/10/21 00:15:14;;;;;;;4.03;3.63;;;15.90;67.70;;;;;;5093360;28;20070;-73
2022/10/21 00:17:41;;;;;;;5.32;3.90;;;15.90;67.80;;;;;;5093712;28;20058;-73
2022/10/21 00:20:10;;;;;;;5.45;3.58;;;16.00;67.80;;;;;;5090100;28;20394;-73
2022/10/21 00:22:38;;;;;;;4.25;3.85;;;15.80;70.40;;;;;;5073447;28;20528;-73
2022/10/21 00:25:05;;;;;;;5.40;3.90;;;16.00;67.80;;;;;;5073368;28;20052;-73
2022/10/21 00:27:32;;;;;;;5.35;3.75;;;15.90;67.80;;;;;;5073048;28;20056;-73
2022/10/21 00:29:59;;;;;;;6.00;3.70;;;15.90;67.80;;;;;;5072769;28;20052;-73
2022/10/21 00:32:26;;;;;;;4.65;3.58;;;15.90;67.80;;;;;;5073188;28;20056;-73
2022/10/21 00:34:53;;;;;;;4.30;3.65;;;15.90;67.80;;;;;;5075795;28;20052;-73
2022/10/21 00:37:19;;;;;;;4.28;3.65;;;15.90;67.80;;;;;;5092934;28;20048;-73
2022/10/21 00:39:47;;;;;;;4.55;3.53;;;15.90;67.90;;;;;;5093303;28;20054;-73
2022/10/21 00:42:15;;;;;;;5.40;4.15;;;15.90;67.90;;;;;;5094259;28;20390;-73
2022/10/21 00:44:42;;;;;;;4.40;3.60;;;15.90;67.90;;;;;;5093261;28;20047;-73
2022/10/21 00:47:09;;;;;;;4.38;3.78;;;15.90;67.80;;;;;;5092321;28;20056;-73
2022/10/21 00:49:38;;;;;;;4.20;3.80;;;15.90;67.90;;;;;;5089424;28;20481;-73
2022/10/21 00:52:08;;;;;;;5.05;3.63;;;15.90;67.90;;;;;;5072907;28;20056;-73
2022/10/21 00:54:35;;;;;;;4.72;3.65;;;15.90;67.80;;;;;;5072571;28;20474;-73
2022/10/21 00:57:03;;;;;;;4.40;3.70;;;15.90;67.90;;;;;;5072533;28;20055;-73
2022/10/21 00:59:35;;;;;;;3.95;3.30;;;15.80;67.80;;;;;;5072940;28;20052;-73
2022/10/21 01:02:02;;;;;;;6.50;3.50;;;15.90;67.90;;;;;;5072258;28;20417;-73
2022/10/21 01:04:29;;;;;;;4.47;3.47;;;15.80;67.80;;;;;;5075947;28;20040;-73
2022/10/21 01:06:56;;;;;;;4.20;3.60;;;15.80;67.80;;;;;;5092762;28;20056;-73
2022/10/21 01:09:24;;;;;;;4.50;3.60;;;15.80;67.80;;;;;;5093843;28;20048;-73
2022/10/21 01:11:51;;;;;;;4.78;3.80;;;15.80;67.80;;;;;;5090860;28;20063;-73
2022/10/21 01:14:52;;;;;;;5.50;3.53;;;15.80;67.80;;;;;;5092355;28;20059;-73
2022/10/21 01:17:24;;;;;;;5.18;3.47;;;15.90;67.80;;;;;;5093602;28;20477;-73
2022/10/21 01:20:19;;;;;;;5.80;3.50;;;15.80;67.80;;;;;;5092462;28;20059;-73
2022/10/21 01:22:56;;;;;;;3.97;3.20;;;15.80;67.80;;;;;;5090534;28;20062;-73
2022/10/21 01:25:32;;;;;;;5.40;3.63;;;15.80;67.90;;;;;;5092329;28;20131;-73
2022/10/21 01:28:01;;;;;;;4.60;3.80;;;15.80;67.90;;;;;;5092370;28;20052;-73
2022/10/21 01:30:38;;;;;;;4.00;3.40;;;16.00;69.20;;;;;;5093263;28;20408;-73
2022/10/21 01:33:26;;;;;;;3.63;3.22;;;15.80;67.80;;;;;;5092015;28;20051;-73
2022/10/21 01:35:55;;;;;;;6.18;3.40;;;15.80;67.80;;;;;;5090770;28;20074;-73
2022/10/21 01:38:24;;;;;;;4.53;3.58;;;15.80;67.90;;;;;;5071633;28;20056;-73
2022/10/21 01:40:54;;;;;;;5.10;3.40;;;15.80;67.90;;;;;;5071693;28;20052;-73
2022/10/21 01:43:26;;;;;;;4.35;3.72;;;15.80;67.90;;;;;;5072818;28;20045;-73
2022/10/21 01:45:55;;;;;;;4.47;3.47;;;15.80;67.90;;;;;;5071813;28;20052;-73
2022/10/21 01:48:24;;;;;;;3.90;3.42;;;15.80;67.90;;;;;;5071934;28;20482;-73
2022/10/21 01:50:53;;;;;;;4.38;3.75;;;15.80;67.90;;;;;;5076134;28;20047;-73
2022/10/21 01:53:19;;;;;;;4.25;3.22;;;15.80;67.90;;;;;;5092069;28;20066;-73
2022/10/21 01:55:46;;;;;;;4.18;3.22;;;15.80;67.90;;;;;;5091674;28;20051;-73
2022/10/21 01:58:14;;;;;;;4.25;3.53;;;15.80;67.90;;;;;;5091980;28;20056;-73
2022/10/21 02:00:41;;;;;;;4.45;3.40;;;15.80;67.90;;;;;;5090541;28;20400;-73
2022/10/21 02:03:10;;;;;;;3.97;3.58;;;15.80;67.90;;;;;;5091777;28;20070;-73
2022/10/21 02:05:37;;;;;;;4.03;3.50;;;16.00;70.80;;;;;;5091751;28;20503;-73
2022/10/21 02:08:04;;;;;;;3.88;3.45;;;15.80;68.00;;;;;;5084836;28;20132;-73
2022/10/21 02:10:33;;;;;;;3.50;3.10;;;15.80;68.50;;;;;;5071197;28;20362;-73
2022/10/21 02:13:00;;;;;;;4.18;3.38;;;15.80;67.90;;;;;;5071304;28;20060;-73
2022/10/21 02:15:27;;;;;;;4.25;3.20;;;15.80;67.90;;;;;;5071318;28;20044;-73
2022/10/21 02:17:55;;;;;;;4.45;3.58;;;15.70;67.90;;;;;;5072135;28;20044;-73
2022/10/21 02:20:23;;;;;;;3.42;3.05;;;15.70;67.90;;;;;;5070875;28;20485;-73
2022/10/21 02:22:50;;;;;;;6.88;3.45;;;15.70;67.90;;;;;;5078058;28;20048;-73
2022/10/21 02:25:21;;;;;;;4.07;3.63;;;15.70;67.90;;;;;;5092341;28;20535;-73
2022/10/21 02:27:47;;;;;;;4.25;3.40;;;15.70;67.90;;;;;;5091026;28;20075;-73
2022/10/21 02:30:14;;;;;;;3.83;3.30;;;15.70;67.90;;;;;;5091735;28;20096;-73
2022/10/21 02:32:44;;;;;;;4.57;3.60;;;15.70;67.90;;;;;;5091257;28;20499;-73
2022/10/21 02:35:17;;;;;;;4.75;3.53;;;15.70;67.90;;;;;;5091115;28;20052;-73
2022/10/21 02:37:47;;;;;;;4.38;3.60;;;15.70;67.90;;;;;;5082801;28;20098;-73
2022/10/21 02:40:18;;;;;;;5.43;3.40;;;15.70;67.90;;;;;;5070278;28;20067;-73
2022/10/21 02:42:45;;;;;;;4.47;3.20;;;15.70;67.90;;;;;;5071077;28;20139;-73
2022/10/21 02:45:12;;;;;;;4.80;3.55;;;15.70;67.90;;;;;;5070636;28;20387;-73
2022/10/21 02:47:39;;;;;;;3.50;3.20;;;15.70;67.90;;;;;;5070539;28;20058;-73
2022/10/21 02:50:07;;;;;;;4.95;3.55;;;15.70;70.30;;;;;;5071663;28;20055;-73
2022/10/21 02:52:33;;;;;;;4.00;3.30;;;15.70;67.90;;;;;;5070627;28;20052;-73
2022/10/21 02:55:01;;;;;;;3.60;3.13;;;15.70;67.90;;;;;;5083801;28;20056;-73
2022/10/21 02:57:28;;;;;;;4.90;3.70;;;15.70;67.90;;;;;;5090872;28;20548;-73
2022/10/21 02:59:55;;;;;;;4.55;3.40;;;15.70;67.90;;;;;;5090626;28;20052;-73
2022/10/21 03:02:21;;;;;;;4.47;3.55;;;15.70;67.90;;;;;;5090903;28;20048;-73
2022/10/21 03:04:48;;;;;;;4.03;3.20;;;15.70;67.90;;;;;;5090592;28;20056;-73
2022/10/21 03:07:15;;;;;;;3.65;2.83;;;15.70;67.90;;;;;;5090935;28;20431;-73
2022/10/21 03:09:41;;;;;;;4.20;3.00;;;15.70;67.90;;;;;;5077719;28;20055;-73
2022/10/21 03:12:09;;;;;;;4.55;3.30;;;15.70;67.90;;;;;;5073060;28;20063;-73
2022/10/21 03:14:36;;;;;;;4.47;3.05;;;15.70;67.90;;;;;;5075674;28;20049;-73
2022/10/21 03:17:04;;;;;;;3.88;3.03;;;15.70;67.90;;;;;;5074816;28;20139;-73
2022/10/21 03:19:30;;;;;;;3.60;3.10;;;15.70;67.90;;;;;;5074729;28;20398;-73
2022/10/21 03:21:57;;;;;;;3.58;2.92;;;15.70;67.90;;;;;;5074074;28;20064;-73
2022/10/21 03:24:24;;;;;;;3.70;3.28;;;15.70;67.90;;;;;;5087284;28;20060;-73
2022/10/21 03:26:50;;;;;;;4.10;3.28;;;15.70;67.90;;;;;;5094852;28;20045;-73
2022/10/21 03:29:18;;;;;;;3.65;3.08;;;15.70;67.90;;;;;;5094741;28;20048;-73
2022/10/21 03:31:45;;;;;;;3.67;3.28;;;15.70;67.90;;;;;;5095349;28;20448;-73
2022/10/21 03:34:12;;;;;;;3.67;3.20;;;15.70;67.90;;;;;;5094255;28;20054;-73
2022/10/21 03:36:38;;;;;;;3.40;3.00;;;15.70;67.90;;;;;;5094501;28;20127;-73
2022/10/21 03:39:05;;;;;;;5.20;3.20;;;15.70;67.90;;;;;;5082540;28;20675;-73
2022/10/21 03:41:32;;;;;;;4.13;3.05;;;15.70;67.90;;;;;;5074973;28;20119;-73
2022/10/21 03:43:58;;;;;;;3.20;2.90;;;15.70;67.90;;;;;;5074345;28;20057;-73
2022/10/21 03:46:27;;;;;;;3.50;3.15;;;15.70;67.90;;;;;;5073974;28;20492;-73
2022/10/21 03:48:53;;;;;;;3.42;3.10;;;15.70;67.90;;;;;;5073938;28;20048;-73
2022/10/21 03:51:20;;;;;;;3.92;3.30;;;15.70;67.90;;;;;;5073745;28;20060;-73
2022/10/21 03:53:47;;;;;;;3.42;3.13;;;15.70;67.90;;;;;;5085583;28;20479;-73
2022/10/21 03:56:13;;;;;;;3.60;3.20;;;15.70;67.90;;;;;;5095247;28;20048;-73
2022/10/21 03:58:40;;;;;;;4.13;2.83;;;15.70;67.90;;;;;;5094262;28;20055;-72
2022/10/21 04:01:07;;;;;;;5.20;2.80;;;15.70;67.90;;;;;;5093594;28;20059;-73
2022/10/21 04:03:35;;;;;;;3.20;2.90;;;15.70;67.90;;;;;;5093914;28;20151;-73
2022/10/21 04:06:02;;;;;;;3.58;3.08;;;15.70;67.90;;;;;;5093987;28;20064;-73
2022/10/21 04:08:29;;;;;;;3.28;2.92;;;15.70;67.90;;;;;;5093814;28;20117;-73
2022/10/21 04:10:57;;;;;;;3.95;3.03;;;15.70;67.90;;;;;;5092033;28;20511;-73
2022/10/21 04:13:24;;;;;;;3.97;2.80;;;15.70;68.50;;;;;;5093941;28;20408;-73
2022/10/21 04:15:51;;;;;;;3.40;3.00;;;17.50;68.90;;;;;;5093745;28;20109;-73
2022/10/21 04:18:17;;;;;;;4.95;2.80;;;15.70;67.90;;;;;;5093727;28;20052;-73
2022/10/21 04:20:45;;;;;;;4.85;3.33;;;15.70;67.90;;;;;;5093838;28;20048;-73
2022/10/21 04:23:12;;;;;;;3.35;2.78;;;15.70;67.90;;;;;;5093531;28;20052;-73
2022/10/21 04:25:39;;;;;;;4.68;2.97;;;15.70;67.90;;;;;;5079981;28;20049;-73
2022/10/21 04:28:05;;;;;;;3.22;2.80;;;15.70;67.90;;;;;;5073212;28;20553;-73
2022/10/21 04:30:32;;;;;;;3.30;2.80;;;15.70;68.00;;;;;;5072709;28;20053;-73
2022/10/21 04:32:59;;;;;;;4.38;2.90;;;15.70;68.00;;;;;;5072929;28;20057;-73
2022/10/21 04:35:25;;;;;;;3.35;2.78;;;15.60;67.90;;;;;;5074158;28;20389;-73
2022/10/21 04:37:53;;;;;;;3.20;2.90;;;15.70;68.00;;;;;;5074153;28;20409;-73
2022/10/21 04:40:21;;;;;;;3.08;2.75;;;15.70;68.00;;;;;;5072685;28;20060;-73
2022/10/21 04:42:48;;;;;;;3.83;2.97;;;15.70;68.00;;;;;;5075333;28;20048;-73
2022/10/21 04:45:15;;;;;;;4.03;2.78;;;15.70;68.00;;;;;;5073234;28;20493;-73
2022/10/21 04:47:41;;;;;;;2.90;2.60;;;15.70;68.00;;;;;;5072976;28;20059;-73
2022/10/21 04:50:08;;;;;;;3.30;2.70;;;15.70;68.00;;;;;;5072911;28;20078;-73
2022/10/21 04:52:35;;;;;;;3.55;3.00;;;15.70;68.00;;;;;;5072793;28;20060;-73
2022/10/21 04:55:04;;;;;;;3.45;2.83;;;15.60;67.90;;;;;;5072697;28;20056;-73
2022/10/21 04:57:31;;;;;;;3.03;2.60;;;15.70;68.00;;;;;;5072582;28;20509;-73
2022/10/21 04:59:57;;;;;;;3.35;3.05;;;15.70;68.00;;;;;;5076423;28;20055;-73
2022/10/21 05:02:24;;;;;;;3.72;2.80;;;15.70;68.00;;;;;;5091741;28;20044;-73
2022/10/21 05:04:51;;;;;;;3.25;2.90;;;15.70;68.00;;;;;;5092403;28;20056;-73
2022/10/21 05:07:17;;;;;;;3.53;2.78;;;15.60;67.90;;;;;;5092883;28;20058;-73
2022/10/21 05:09:44;;;;;;;3.67;2.90;;;15.60;68.40;;;;;;5093846;28;20412;-73
2022/10/21 05:12:12;;;;;;;3.63;2.90;;;15.60;68.00;;;;;;5092735;28;20091;-73
2022/10/21 05:14:39;;;;;;;2.70;2.50;;;15.60;67.90;;;;;;5092635;28;20459;-73
2022/10/21 05:17:06;;;;;;;3.50;2.97;;;15.60;68.00;;;;;;5087453;28;20143;-73
2022/10/21 05:19:32;;;;;;;3.33;2.95;;;15.60;68.00;;;;;;5073513;28;20438;-73
2022/10/21 05:21:59;;;;;;;3.08;2.67;;;15.60;68.00;;;;;;5072156;28;20048;-73
2022/10/21 05:24:26;;;;;;;3.03;2.65;;;15.60;68.00;;;;;;5072060;28;20417;-73
2022/10/21 05:26:52;;;;;;;3.30;2.90;;;15.60;68.00;;;;;;5072264;28;20500;-73
2022/10/21 05:29:20;;;;;;;4.68;3.00;;;15.60;68.00;;;;;;5071912;28;20062;-73
2022/10/21 05:31:47;;;;;;;3.00;2.70;;;15.60;68.00;;;;;;5076100;28;20051;-73
2022/10/21 05:34:14;;;;;;;3.00;2.70;;;15.60;68.00;;;;;;5091897;28;20054;-73
2022/10/21 05:36:41;;;;;;;3.03;2.70;;;15.60;68.00;;;;;;5091958;28;20063;-72
2022/10/21 05:39:10;;;;;;;3.17;2.70;;;15.60;68.00;;;;;;5092360;28;20055;-73
2022/10/21 05:41:37;;;;;;;3.65;2.85;;;15.60;68.00;;;;;;5091584;28;20052;-73
2022/10/21 05:44:03;;;;;;;2.85;2.55;;;15.60;68.00;;;;;;5091917;28;20514;-73
2022/10/21 05:46:31;;;;;;;3.80;3.00;;;15.60;68.00;;;;;;5088784;28;20055;-73
2022/10/21 05:48:58;;;;;;;4.10;2.85;;;15.60;68.00;;;;;;5071600;28;20412;-73
2022/10/21 05:51:25;;;;;;;3.00;2.70;;;15.60;68.00;;;;;;5071131;28;20076;-73
2022/10/21 05:53:52;;;;;;;3.50;2.80;;;15.60;68.00;;;;;;5072426;28;20072;-73
2022/10/21 05:56:19;;;;;;;3.10;2.53;;;15.60;68.00;;;;;;5071596;28;20409;-73
2022/10/21 05:58:46;;;;;;;3.55;2.95;;;15.60;68.00;;;;;;5071671;28;20060;-73
2022/10/21 06:01:13;;;;;;;3.00;2.70;;;15.60;68.00;;;;;;5071325;28;20078;-73
2022/10/21 06:03:41;;;;;;;2.95;2.67;;;15.60;68.00;;;;;;5072480;28;20053;-73
2022/10/21 06:06:08;;;;;;;3.40;2.97;;;16.70;68.60;;;;;;5071355;28;20062;-72
2022/10/21 06:08:36;;;;;;;3.15;2.85;;;15.60;68.00;;;;;;5074545;28;20056;-73
2022/10/21 06:11:04;;;;;;;3.03;2.55;;;15.60;68.10;;;;;;5092224;28;20074;-73
2022/10/21 06:13:30;;;;;;;3.38;2.67;;;15.60;68.00;;;;;;5091628;28;20147;-73
2022/10/21 06:15:57;;;;;;;3.70;2.90;;;15.60;68.00;;;;;;5092597;28;20404;-73
2022/10/21 06:18:24;;;;;;;3.15;2.50;;;15.60;68.00;;;;;;5097503;28;20054;-73
2022/10/21 06:20:54;;;;;;;3.00;2.65;;;15.60;68.00;;;;;;5091062;28;20145;-73
2022/10/21 06:23:21;;;;;;;3.20;2.90;;;15.60;68.00;;;;;;5091437;28;20392;-73
2022/10/21 06:25:55;;;;;;;3.28;2.63;;;15.50;68.00;;;;;;5091218;28;20056;-73
2022/10/21 06:28:21;;;;;;;2.90;2.60;;;15.50;68.00;;;;;;5091353;28;20062;-73
2022/10/21 06:30:50;;;;;;;3.58;2.90;;;15.60;68.10;;;;;;5091095;28;20503;-73
2022/10/21 06:33:16;;;;;;;4.10;3.00;;;15.60;68.20;;;;;;5090307;28;20063;-73
2022/10/21 06:35:43;;;;;;;3.60;2.90;;;15.60;68.20;;;;;;5090893;28;20054;-73
2022/10/21 06:38:11;;;;;;;3.30;2.67;;;15.60;68.20;;;;;;5091308;28;20056;-73
2022/10/21 06:40:38;;;;;;;3.17;2.78;;;15.60;68.20;;;;;;5092218;28;20420;-73
2022/10/21 06:43:04;;;;;;;4.55;3.20;;;15.50;68.20;;;;;;5091085;28;20054;-73
2022/10/21 06:45:31;;;;;;;3.17;2.88;;;15.50;68.20;;;;;;5090350;28;20066;-72
2022/10/21 06:47:58;;;;;;;3.50;2.90;;;15.60;68.30;;;;;;5084895;28;20074;-72
2022/10/21 06:50:25;;;;;;;3.10;2.80;;;15.60;68.30;;;;;;5070647;28;20056;-72
2022/10/21 06:52:52;;;;;;;3.75;3.03;;;15.60;68.30;;;;;;5072015;28;20048;-72
2022/10/21 06:55:20;;;;;;;3.40;2.80;;;15.50;68.30;;;;;;5070749;28;20135;-72
2022/10/21 06:57:47;;;;;;;3.33;3.03;;;15.60;68.30;;;;;;5071817;28;20476;-72
2022/10/21 07:00:20;;;;;;;3.22;2.72;;;15.60;68.40;;;;;;5070834;28;20087;-72
2022/10/21 07:02:47;;;;;;;3.83;3.10;;;15.60;68.40;;;;;;5071754;28;20549;-72
2022/10/21 07:05:14;;;;;;;3.42;2.92;;;15.50;68.30;;;;;;5070432;28;20070;-72
2022/10/21 07:07:40;;;;;;;3.22;2.83;;;15.60;68.30;;;;;;5078801;28;20036;-72
2022/10/21 07:10:07;;;;;;;3.75;3.00;;;15.00;70.70;;;;;;5077554;28;20049;-73
2022/10/21 07:12:35;;;;;;;4.95;2.97;;;15.60;68.30;;;;;;5070633;28;20067;-73
2022/10/21 07:15:02;;;;;;;3.30;2.95;;;15.60;68.30;;;;;;5070464;28;20060;-73
2022/10/21 07:17:29;;;;;;;4.13;2.90;;;15.60;68.30;;;;;;5070515;28;20052;-73
2022/10/21 07:19:56;;;;;;;3.10;2.80;;;15.60;68.30;;;;;;5079121;28;20052;-73
2022/10/21 07:22:23;;;;;;;3.85;3.15;;;15.60;68.30;;;;;;5090994;28;20507;-73
2022/10/21 07:24:49;;;;;;;3.50;2.72;;;15.60;68.30;;;;;;5089955;28;20048;-74
2022/10/21 07:27:16;;;;;;;2.90;2.60;;;15.60;68.30;;;;;;5090725;28;20054;-73
2022/10/21 07:29:44;;;;;;;5.82;3.10;;;15.60;68.20;;;;;;5091011;28;20048;-73
2022/10/21 07:32:11;;;;;;;2.90;2.60;;;15.60;68.20;;;;;;5090272;28;20051;-73
2022/10/21 07:34:38;;;;;;;3.30;2.92;;;15.60;68.20;;;;;;5080456;28;20139;-73
2022/10/21 07:37:05;;;;;;;4.30;3.10;;;15.60;68.20;;;;;;5070467;28;20041;-73
2022/10/21 07:39:33;;;;;;;4.40;2.70;;;15.70;68.10;;;;;;5070093;28;20063;-73
2022/10/21 07:42:00;;;;;;;4.03;2.95;;;15.70;68.10;;;;;;5070358;28;20181;-73
2022/10/21 07:44:27;;;;;;;3.33;2.50;;;15.70;68.60;;;;;;5070657;28;20062;-73
2022/10/21 07:46:55;;;;;;;3.45;2.70;;;15.80;68.00;;;;;;5070419;28;20059;-73
2022/10/21 07:49:22;;;;;;;3.03;2.53;;;15.80;67.80;;;;;;5079999;28;20090;-73
2022/10/21 07:51:49;;;;;;;3.13;2.67;;;15.90;67.80;;;;;;5090447;28;20058;-73
2022/10/21 07:54:16;;;;;;;2.60;2.40;;;15.90;67.70;;;;;;5090500;28;20525;-73
2022/10/21 07:56:44;;;;;;;4.45;2.60;;;15.90;67.60;;;;;;5090378;28;20048;-73
2022/10/21 07:59:12;;;;;;;3.47;2.72;;;16.00;67.60;;;;;;5094218;28;20485;-73
2022/10/21 08:01:39;;;;;;;4.32;2.80;;;16.00;67.50;;;;;;5094237;28;20052;-73
2022/10/21 08:04:07;;;;;;;3.53;2.50;;;16.00;67.40;;;;;;5084159;28;20055;-73
2022/10/21 08:06:34;;;;;;;2.85;2.55;;;16.10;67.40;;;;;;5073969;28;20048;-73
2022/10/21 08:09:01;;;;;;;3.42;2.53;;;16.10;67.30;;;;;;5074875;28;20098;-73
2022/10/21 08:11:29;;;;;;;3.47;2.85;;;16.10;67.20;;;;;;5073669;28;20059;-73
2022/10/21 08:13:56;;;;;;;3.67;2.50;;;16.20;67.20;;;;;;5086526;28;20082;-73
2022/10/21 08:16:24;;;;;;;3.00;2.60;;;16.20;67.10;;;;;;5091589;28;20048;-73
2022/10/21 08:18:50;;;;;;;3.22;2.72;;;16.20;67.10;;;;;;5082894;28;20131;-73
2022/10/21 08:21:18;;;;;;;5.00;2.88;;;16.30;67.10;;;;;;5065886;28;20051;-73
2022/10/21 08:23:45;;;;;;;2.97;2.40;;;16.30;67.00;;;;;;5085411;28;20374;-73
2022/10/21 08:26:13;;;;;;;3.67;2.60;;;16.30;66.90;;;;;;5082693;28;20056;-73
2022/10/21 08:28:40;;;;;;;2.58;2.10;;;16.30;66.90;;;;;;5080824;28;20052;-73
2022/10/21 08:31:08;;;;;;;3.08;2.63;;;16.40;66.90;;;;;;5082846;28;20056;-73
2022/10/21 08:33:35;;;;;;;3.45;2.63;;;16.40;66.90;;;;;;5079674;28;20124;-73
2022/10/21 08:36:05;;;;;;;3.05;2.30;;;16.40;66.80;;;;;;5069862;28;20139;-73
2022/10/21 08:38:33;;;;;;;3.05;2.47;;;16.40;66.80;;;;;;5093380;28;20134;-75
2022/10/21 08:41:00;;;;;;;3.03;2.42;;;16.50;66.80;;;;;;5093133;28;20052;-74
2022/10/21 08:43:28;;;;;;;3.75;2.50;;;16.50;66.70;;;;;;5093302;28;20142;-74
2022/10/21 08:45:56;;;;;;;2.75;2.45;;;16.50;66.70;;;;;;5076226;28;20056;-74
2022/10/21 08:48:25;;;;;;;3.10;2.25;;;16.50;66.60;;;;;;5093468;28;20054;-74
2022/10/21 08:50:51;;;;;;;3.58;2.40;;;16.50;66.60;;;;;;5092260;28;20056;-73
2022/10/21 08:53:20;;;;;;;3.50;2.30;;;16.60;66.60;;;;;;5093027;28;20055;-74
2022/10/21 08:55:48;;;;;;;3.97;2.53;;;16.60;66.60;;;;;;5092574;28;20048;-74
2022/10/21 08:58:16;;;;;;;3.17;2.60;;;16.60;66.50;;;;;;5092989;28;20054;-74
2022/10/21 09:00:45;;;;;;;3.05;2.35;;;16.60;66.50;;;;;;5092711;28;20058;-73
2022/10/21 09:03:18;;;;;;;2.72;2.38;;;16.60;66.40;;;;;;5086689;28;20094;-74
2022/10/21 09:06:09;;;;;;;3.00;2.40;;;16.70;66.50;;;;;;5092358;28;20150;-73
2022/10/21 09:08:40;;;;;;;3.13;2.20;;;16.70;66.50;;;;;;5092116;28;20056;-73
2022/10/21 09:11:13;;;;;;;4.07;2.40;;;16.70;66.40;;;;;;5092879;28;20135;-74
2022/10/21 09:13:50;;;;;;;3.22;2.42;;;16.80;66.50;;;;;;5092744;28;20056;-73
2022/10/21 09:16:19;;;;;;;2.75;2.42;;;16.80;66.50;;;;;;5093015;28;20080;-74
2022/10/21 09:18:50;;;;;;;3.05;2.33;;;16.80;66.50;;;;;;5092003;28;20052;-75
2022/10/21 09:21:20;;;;;;;2.35;2.15;;;16.80;66.50;;;;;;5072534;28;20135;-74
2022/10/21 09:23:57;;;;;;;3.15;2.15;;;16.90;66.50;;;;;;5072339;28;20061;-74
2022/10/21 09:26:33;;;;;;;2.38;2.10;;;16.90;66.50;;;;;;5081124;28;20123;-74
2022/10/21 09:29:00;;;;;;;2.58;2.10;;;16.90;66.50;;;;;;5105188;28;20062;-74
2022/10/21 09:31:28;;;;;;;2.55;2.20;;;16.90;66.50;;;;;;5112719;28;20477;-74
2022/10/21 09:33:56;;;;;;;4.25;2.35;;;16.90;66.50;;;;;;5093910;28;20044;-74
2022/10/21 09:36:24;;;;;;;3.63;2.50;;;16.90;66.50;;;;;;5092214;28;20052;-74
2022/10/21 09:38:54;;;;;;;2.63;2.20;;;17.00;66.50;;;;;;5092367;28;20408;-74
2022/10/21 09:41:22;;;;;;;2.83;2.30;;;17.00;66.50;;;;;;5088796;28;20486;-74
2022/10/21 09:43:50;;;;;;;2.90;2.35;;;17.00;66.40;;;;;;5080691;28;20093;-73
2022/10/21 09:46:16;;;;;;;2.95;2.17;;;17.00;66.40;;;;;;5086844;28;20050;-73
2022/10/21 09:48:44;;;;;;;2.50;2.10;;;17.00;66.40;;;;;;5074922;28;20044;-74
2022/10/21 09:51:14;;;;;;;2.30;2.10;;;17.10;66.40;;;;;;5081923;28;20050;-74
2022/10/21 09:53:44;;;;;;;2.80;2.25;;;17.00;66.30;;;;;;5082904;28;20135;-74
2022/10/21 09:56:13;;;;;;;2.72;2.40;;;17.10;66.40;;;;;;5065237;28;20500;-74
2022/10/21 09:58:50;;;;;;;2.42;1.90;;;17.10;66.40;;;;;;5081729;28;20050;-74
2022/10/21 10:01:18;;;;;;;2.97;2.38;;;17.20;66.40;;;;;;5080961;28;20062;-74
2022/10/21 10:03:46;;;;;;;2.50;2.15;;;17.20;66.40;;;;;;5081514;28;20139;-74
2022/10/21 10:06:13;;;;;;;3.08;1.90;;;17.20;66.30;;;;;;5091745;28;20127;-74
2022/10/21 10:08:40;;;;;;;2.83;2.08;;;17.20;66.30;;;;;;5091564;28;20142;-75
2022/10/21 10:11:17;;;;;;;2.75;2.25;;;17.20;66.30;;;;;;5091629;28;20630;-75
2022/10/21 10:13:46;;;;;;;2.67;2.17;;;17.20;66.30;;;;;;5090862;28;20405;-75
2022/10/21 10:16:23;;;;;;;2.95;2.00;;;17.20;66.20;;;;;;5088296;28;20126;-75
2022/10/21 10:18:50;;;;;;;2.45;2.03;;;17.20;66.20;;;;;;5092472;28;20507;-74
2022/10/21 10:21:18;;;;;;;3.25;2.30;;;17.20;66.20;;;;;;5091452;28;20400;-74
2022/10/21 10:23:46;;;;;;;3.15;2.08;;;17.20;66.10;;;;;;5091871;28;20055;-74
2022/10/21 10:26:19;;;;;;;3.65;2.17;;;17.20;66.10;;;;;;5091628;28;20055;-74
2022/10/21 10:28:50;;;;;;;2.88;2.03;;;17.20;66.10;;;;;;5089294;28;20050;-74
2022/10/21 10:31:24;;;;;;;2.83;2.35;;;17.20;66.10;;;;;;5090249;28;20083;-74
2022/10/21 10:33:53;;;;;;;2.23;1.90;;;17.20;66.10;;;;;;5092717;28;20416;-74
2022/10/21 10:36:26;;;;;;;2.42;1.98;;;17.20;66.20;;;;;;5091505;28;20051;-73
2022/10/21 10:38:53;;;;;;;2.60;1.92;;;17.20;66.20;;;;;;5091289;28;20063;-74
2022/10/21 10:41:20;;;;;;;2.85;2.17;;;17.20;66.20;;;;;;5092116;28;20044;-74
2022/10/21 10:43:48;;;;;;;3.22;2.00;;;17.10;66.10;;;;;;5092435;28;20048;-74
2022/10/21 10:46:19;;;;;;;2.58;2.00;;;17.10;66.20;;;;;;5089738;28;20111;-74
2022/10/21 10:48:49;;;;;;;2.10;1.90;;;17.20;66.20;;;;;;5091296;28;20054;-73
2022/10/21 10:51:24;;;;;;;2.25;2.05;;;17.10;66.70;;;;;;5091167;28;20052;-74
2022/10/21 10:53:58;;;;;;;;;;;17.10;66.30;;;;;;5091250;28;20052;-74
2022/10/21 10:56:26;;;;;;;2.28;2.08;;;17.10;66.50;;;;;;5091547;28;20395;-74
2022/10/21 10:58:56;;;;;;;3.47;2.30;;;17.10;66.60;;;;;;5091019;28;20051;-74
2022/10/21 11:01:25;;;;;;;2.70;2.10;;;17.10;66.60;;;;;;5073139;28;20059;-74
2022/10/21 11:03:56;;;;;;;2.20;2.00;;;17.10;66.70;;;;;;5070914;28;20064;-74
2022/10/21 11:06:30;;;;;;;2.38;2.10;;;17.10;66.70;;;;;;5071381;28;20095;-75
2022/10/21 11:08:57;;;;;;;2.88;2.30;;;17.10;66.80;;;;;;5070725;28;20063;-74
2022/10/21 11:11:25;;;;;;;3.00;2.10;;;17.10;66.80;;;;;;5070589;28;20473;-74
2022/10/21 11:13:52;;;;;;;2.65;2.05;;;17.10;66.90;;;;;;5078644;28;20052;-74
2022/10/21 11:16:33;;;;;;;2.85;2.20;;;17.10;66.90;;;;;;5078585;28;20135;-74
2022/10/21 11:19:04;;;;;;;2.25;2.05;;;17.10;66.90;;;;;;5080815;28;20044;-74
2022/10/21 11:21:39;;;;;;;2.85;2.20;;;17.10;67.00;;;;;;5078922;28;20048;-74
2022/10/21 11:24:24;;;;;;;2.70;2.08;;;17.10;67.00;;;;;;5079581;28;20060;-74
2022/10/21 11:26:53;;;;;;;2.55;2.13;;;17.10;67.00;;;;;;5081493;28;20055;-73
2022/10/21 11:29:33;;;;;;;2.33;2.00;;;17.00;67.00;;;;;;5080010;28;20414;-74
2022/10/21 11:32:04;;;;;;;3.45;2.35;;;17.00;67.00;;;;;;5082247;28;20098;-74
2022/10/21 11:34:36;;;;;;;2.72;2.20;;;17.00;67.10;;;;;;5092313;28;20154;-74
2022/10/21 11:37:07;;;;;;;2.47;2.00;;;17.10;67.10;;;;;;5094683;28;20066;-74
2022/10/21 11:39:36;;;;;;;2.08;1.88;;;17.10;67.10;;;;;;5094588;28;20055;-75
2022/10/21 11:42:08;;;;;;;2.53;2.08;;;17.00;67.10;;;;;;5095449;28;20073;-74
2022/10/21 11:44:47;;;;;;;2.85;2.10;;;17.00;67.00;;;;;;5094698;28;20066;-74
2022/10/21 11:47:16;;;;;;;3.13;1.92;;;17.10;67.10;;;;;;5082942;28;20507;-74
2022/10/21 11:49:56;;;;;;;2.40;2.00;;;17.00;67.10;;;;;;5092594;28;20412;-75
2022/10/21 11:52:31;;;;;;;2.63;2.10;;;17.00;67.00;;;;;;5101310;28;20051;-75
2022/10/21 11:55:11;;;;;;;2.10;1.90;;;17.00;67.10;;;;;;5114873;28;20140;-74
2022/10/21 11:57:42;;;;;;;2.28;1.85;;;17.00;67.00;;;;;;5088185;28;20059;-75
2022/10/21 12:00:12;;;;;;;2.83;2.17;;;17.10;67.10;;;;;;5084066;28;20055;-75
2022/10/21 12:02:42;;;;;;;2.08;1.85;;;17.10;67.10;;;;;;5084642;28;20066;-74
2022/10/21 12:05:22;;;;;;;2.42;1.83;;;17.10;67.00;;;;;;5088986;28;20119;-74
2022/10/21 12:08:08;;;;;;;2.38;2.05;;;17.10;67.00;;;;;;5100903;28;20472;-75
2022/10/21 12:10:36;;;;;;;2.22;1.85;;;17.10;67.00;;;;;;5085576;28;20049;-74
2022/10/21 12:13:04;;;;;;;2.47;2.00;;;17.10;67.00;;;;;;5075077;28;20053;-74
2022/10/21 12:15:35;;;;;;;2.15;1.90;;;17.10;67.00;;;;;;5073802;28;20052;-74
2022/10/21 12:18:03;;;;;;;2.05;1.85;;;17.00;67.00;;;;;;5073715;28;20131;-74
2022/10/21 12:20:31;;;;;;;2.60;2.03;;;17.10;67.00;;;;;;5074487;28;20052;-74
2022/10/21 12:22:59;;;;;;;2.92;2.10;;;17.10;67.00;;;;;;5073775;28;20404;-74
2022/10/21 12:25:29;;;;;;;2.78;2.28;;;17.10;67.10;;;;;;5074867;28;20048;-74
2022/10/21 12:27:59;;;;;;;3.03;1.95;;;17.10;67.10;;;;;;5072789;28;20135;-74
2022/10/21 12:30:30;;;;;;;4.03;2.15;;;17.10;67.10;;;;;;5073244;28;20052;-74
2022/10/21 12:33:07;;;;;;;2.92;1.90;;;17.20;67.40;;;;;;5073684;28;20048;-74
2022/10/21 12:35:45;;;;;;;3.08;1.92;;;17.20;67.40;;;;;;5074638;28;20115;-74
2022/10/21 12:38:26;;;;;;;2.75;2.15;;;17.20;67.40;;;;;;5089321;28;20048;-74
2022/10/21 12:41:26;;;;;;;4.20;2.03;;;17.20;67.50;;;;;;5074117;28;20045;-74
2022/10/21 12:43:54;;;;;;;2.92;2.30;;;17.20;67.40;;;;;;5079501;28;20497;-74
2022/10/21 12:46:23;;;;;;;4.07;2.08;;;17.20;67.60;;;;;;5082744;28;20128;-74
2022/10/21 12:48:51;;;;;;;3.08;2.15;;;17.20;67.80;;;;;;5082894;28;20127;-74
2022/10/21 12:51:21;;;;;;;5.00;2.05;;;17.20;67.90;;;;;;5082243;28;20378;-74
2022/10/21 12:53:51;;;;;;;2.47;2.08;;;17.20;67.90;;;;;;5085833;28;20075;-74
2022/10/21 12:56:30;;;;;;;3.17;2.00;;;17.20;68.00;;;;;;5079051;28;20058;-74